sensor_id;sensor_type;location;lat;lon;timestamp;pressure;altitude;pressure_sealevel;temperature;humidity
64243;BME280;50573;51.512;5.386;2023-11-22T00:04:27;165680.72;;;4.30;100.00
64243;BME280;50573;51.512;5.386;2023-11-22T00:14:30;165674.13;;;4.27;100.00
64243;BME280;50573;51.512;5.386;2023-11-22T00:24:34;165653.00;;;4.19;100.00
64243;BME280;50573;51.512;5.386;2023-11-22T00:34:38;165645.09;;;4.16;100.00
64243;BME280;50573;51.512;5.386;2023-11-22T00:44:42;165618.69;;;4.06;100.00
64243;BME280;50573;51.512;5.386;2023-11-22T00:54:45;165591.00;;;3.95;100.00
64243;BME280;50573;51.512;5.386;2023-11-22T01:04:49;165563.28;;;3.85;100.00
64243;BME280;50573;51.512;5.386;2023-11-22T01:14:52;165534.28;;;3.74;100.00
64243;BME280;50573;51.512;5.386;2023-11-22T01:24:57;165490.72;;;3.57;100.00
64243;BME280;50573;51.512;5.386;2023-11-22T01:35:00;165464.34;;;3.47;100.00
64243;BME280;50573;51.512;5.386;2023-11-22T01:45:06;165464.34;;;3.47;100.00
64243;BME280;50573;51.512;5.386;2023-11-22T01:55:09;165451.16;;;3.42;100.00
64243;BME280;50573;51.512;5.386;2023-11-22T02:05:14;165422.16;;;3.31;100.00
64243;BME280;50573;51.512;5.386;2023-11-22T02:15:17;165360.19;;;3.08;100.00
64243;BME280;50573;51.512;5.386;2023-11-22T02:25:21;165333.81;;;2.98;100.00
64243;BME280;50573;51.512;5.386;2023-11-22T02:35:24;165345.69;;;3.02;100.00
64243;BME280;50573;51.512;5.386;2023-11-22T02:45:30;165321.97;;;2.93;100.00
64243;BME280;50573;51.512;5.386;2023-11-22T02:55:33;165294.25;;;2.82;100.00
64243;BME280;50573;51.512;5.386;2023-11-22T03:05:37;165246.81;;;2.64;100.00
64243;BME280;50573;51.512;5.386;2023-11-22T03:15:41;165194.13;;;2.44;100.00
64243;BME280;50573;51.512;5.386;2023-11-22T03:25:46;165130.88;;;2.20;100.00
64243;BME280;50573;51.512;5.386;2023-11-22T03:35:49;165080.78;;;2.01;100.00
64243;BME280;50573;51.512;5.386;2023-11-22T03:45:54;165037.34;;;1.85;100.00
64243;BME280;50573;51.512;5.386;2023-11-22T03:55:57;164999.13;;;1.70;100.00
64243;BME280;50573;51.512;5.386;2023-11-22T04:06:01;164980.69;;;1.63;100.00
64243;BME280;50573;51.512;5.386;2023-11-22T04:16:05;164943.81;;;1.49;100.00
64243;BME280;50573;51.512;5.386;2023-11-22T04:26:12;164900.34;;;1.32;100.00
64243;BME280;50573;51.512;5.386;2023-11-22T04:36:15;164870.06;;;1.21;100.00
64243;BME280;50573;51.512;5.386;2023-11-22T04:46:19;164834.50;;;1.07;100.00
64243;BME280;50573;51.512;5.386;2023-11-22T04:56:22;164804.22;;;0.96;100.00
64243;BME280;50573;51.512;5.386;2023-11-22T05:06:27;164785.81;;;0.89;100.00
64243;BME280;50573;51.512;5.386;2023-11-22T05:16:30;164780.53;;;0.87;100.00
64243;BME280;50573;51.512;5.386;2023-11-22T05:26:36;164785.81;;;0.89;100.00
64243;BME280;50573;51.512;5.386;2023-11-22T05:36:40;164797.66;;;0.93;100.00
64243;BME280;50573;51.512;5.386;2023-11-22T05:46:44;164838.44;;;1.09;100.00
64243;BME280;50573;51.512;5.386;2023-11-22T05:56:47;164881.91;;;1.25;100.00
64243;BME280;50573;51.512;5.386;2023-11-22T06:06:52;164912.19;;;1.37;100.00
64243;BME280;50573;51.512;5.386;2023-11-22T06:16:55;164951.72;;;1.52;100.00
64243;BME280;50573;51.512;5.386;2023-11-22T06:26:59;164993.84;;;1.68;100.00
64243;BME280;50573;51.512;5.386;2023-11-22T06:37:02;165072.88;;;1.98;100.00
64243;BME280;50573;51.512;5.386;2023-11-22T06:47:07;165163.81;;;2.33;100.00
64243;BME280;50573;51.512;5.386;2023-11-22T06:57:10;165220.47;;;2.54;100.00
64243;BME280;50573;51.512;5.386;2023-11-22T07:07:14;165282.41;;;2.78;100.00
64243;BME280;50573;51.512;5.386;2023-11-22T07:17:18;165298.22;;;2.84;100.00
64243;BME280;50573;51.512;5.386;2023-11-22T07:27:22;165339.09;;;3.00;100.00
64243;BME280;50573;51.512;5.386;2023-11-22T07:37:27;165376.00;;;3.14;100.00
64243;BME280;50573;51.512;5.386;2023-11-22T07:47:32;165402.38;;;3.24;100.00
64243;BME280;50573;51.512;5.386;2023-11-22T07:57:35;165444.59;;;3.40;100.00
64243;BME280;50573;51.512;5.386;2023-11-22T08:07:39;165464.34;;;3.47;100.00
64243;BME280;50573;51.512;5.386;2023-11-22T08:17:43;165492.06;;;3.58;100.00
64243;BME280;50573;51.512;5.386;2023-11-22T08:27:47;165550.09;;;3.80;100.00
64243;BME280;50573;51.512;5.386;2023-11-22T08:37:50;165602.88;;;4.00;100.00
64243;BME280;50573;51.512;5.386;2023-11-22T08:47:55;165621.31;;;4.07;100.00
64243;BME280;50573;51.512;5.386;2023-11-22T08:57:58;165693.88;;;4.35;100.00
64243;BME280;50573;51.512;5.386;2023-11-22T09:08:02;165707.09;;;4.40;100.00
64243;BME280;50573;51.512;5.386;2023-11-22T09:18:19;165742.75;;;4.53;100.00
64243;BME280;50573;51.512;5.386;2023-11-22T09:28:25;165812.72;;;4.80;100.00
64243;BME280;50573;51.512;5.386;2023-11-22T09:38:28;165811.38;;;4.79;100.00
64243;BME280;50573;51.512;5.386;2023-11-22T09:48:33;165828.53;;;4.86;100.00
64243;BME280;50573;51.512;5.386;2023-11-22T09:58:38;165866.84;;;5.00;100.00
64243;BME280;50573;51.512;5.386;2023-11-22T10:08:47;165907.75;;;5.16;100.00
64243;BME280;50573;51.512;5.386;2023-11-22T10:18:50;165957.91;;;5.35;100.00
64243;BME280;50573;51.512;5.386;2023-11-22T10:28:55;166020.00;;;5.58;100.00
64243;BME280;50573;51.512;5.386;2023-11-22T10:38:59;166070.19;;;5.78;100.00
64243;BME280;50573;51.512;5.386;2023-11-22T10:49:06;166072.88;;;5.79;100.00
64243;BME280;50573;51.512;5.386;2023-11-22T10:59:13;166075.50;;;5.80;100.00
64243;BME280;50573;51.512;5.386;2023-11-22T11:09:18;166128.41;;;6.00;100.00
64243;BME280;50573;51.512;5.386;2023-11-22T11:19:24;166165.38;;;6.14;100.00
64243;BME280;50573;51.512;5.386;2023-11-22T11:29:34;166164.03;;;6.13;100.00
64243;BME280;50573;51.512;5.386;2023-11-22T11:39:38;166109.88;;;5.93;100.00
64243;BME280;50573;51.512;5.386;2023-11-22T11:49:43;166141.56;;;6.05;100.00
64243;BME280;50573;51.512;5.386;2023-11-22T11:59:46;166132.38;;;6.01;100.00
64243;BME280;50573;51.512;5.386;2023-11-22T12:09:52;166178.59;;;6.19;100.00
64243;BME280;50573;51.512;5.386;2023-11-22T12:20:08;166133.66;;;6.02;100.00
64243;BME280;50573;51.512;5.386;2023-11-22T12:40:45;166090.09;;;5.85;100.00
64243;BME280;50573;51.512;5.386;2023-11-22T12:50:49;166055.69;;;5.72;100.00
64243;BME280;50573;51.512;5.386;2023-11-22T13:00:54;166088.75;;;5.85;100.00
64243;BME280;50573;51.512;5.386;2023-11-22T13:11:02;166092.72;;;5.86;100.00
64243;BME280;50573;51.512;5.386;2023-11-22T13:21:07;166088.75;;;5.85;100.00
64243;BME280;50573;51.512;5.386;2023-11-22T13:31:11;166046.44;;;5.68;100.00
64243;BME280;50573;51.512;5.386;2023-11-22T13:41:15;166062.28;;;5.75;100.00
64243;BME280;50573;51.512;5.386;2023-11-22T13:51:19;166099.31;;;5.89;100.00
64243;BME280;50573;51.512;5.386;2023-11-22T14:01:24;166104.59;;;5.91;100.00
64243;BME280;50573;51.512;5.386;2023-11-22T14:11:29;166072.88;;;5.79;100.00
64243;BME280;50573;51.512;5.386;2023-11-22T14:21:35;166054.34;;;5.72;100.00
64243;BME280;50573;51.512;5.386;2023-11-22T14:31:45;166049.06;;;5.69;100.00
64243;BME280;50573;51.512;5.386;2023-11-22T14:41:54;166026.59;;;5.61;100.00
64243;BME280;50573;51.512;5.386;2023-11-22T14:52:00;166020.00;;;5.58;100.00
64243;BME280;50573;51.512;5.386;2023-11-22T15:02:07;166029.25;;;5.62;100.00
64243;BME280;50573;51.512;5.386;2023-11-22T15:12:16;166023.97;;;5.60;100.00
64243;BME280;50573;51.512;5.386;2023-11-22T15:22:22;166038.53;;;5.65;100.00
64243;BME280;50573;51.512;5.386;2023-11-22T15:32:25;166034.56;;;5.64;100.00
64243;BME280;50573;51.512;5.386;2023-11-22T15:42:30;166045.09;;;5.68;100.00
64243;BME280;50573;51.512;5.386;2023-11-22T15:52:33;166022.63;;;5.59;100.00
64243;BME280;50573;51.512;5.386;2023-11-22T16:02:37;165990.97;;;5.47;100.00
64243;BME280;50573;51.512;5.386;2023-11-22T16:12:43;165989.63;;;5.47;100.00
64243;BME280;50573;51.512;5.386;2023-11-22T16:22:47;165996.25;;;5.49;100.00
64243;BME280;50573;51.512;5.386;2023-11-22T16:32:51;165994.91;;;5.49;100.00
64243;BME280;50573;51.512;5.386;2023-11-22T16:42:56;165989.63;;;5.47;100.00
64243;BME280;50573;51.512;5.386;2023-11-22T16:52:59;166020.00;;;5.58;100.00
64243;BME280;50573;51.512;5.386;2023-11-22T17:03:03;166008.13;;;5.54;100.00
64243;BME280;50573;51.512;5.386;2023-11-22T17:13:08;166027.94;;;5.61;100.00
64243;BME280;50573;51.512;5.386;2023-11-22T17:23:14;166023.97;;;5.60;100.00
64243;BME280;50573;51.512;5.386;2023-11-22T17:33:17;166031.88;;;5.63;100.00
64243;BME280;50573;51.512;5.386;2023-11-22T17:43:22;166051.75;;;5.71;100.00
64243;BME280;50573;51.512;5.386;2023-11-22T17:53:26;166064.91;;;5.76;100.00
64243;BME280;50573;51.512;5.386;2023-11-22T18:03:31;166025.31;;;5.60;100.00
64243;BME280;50573;51.512;5.386;2023-11-22T18:13:34;166054.34;;;5.72;100.00
64243;BME280;50573;51.512;5.386;2023-11-22T18:23:40;166064.91;;;5.76;100.00
64243;BME280;50573;51.512;5.386;2023-11-22T18:33:45;166062.28;;;5.75;100.00
64243;BME280;50573;51.512;5.386;2023-11-22T18:43:50;166043.75;;;5.67;100.00
64243;BME280;50573;51.512;5.386;2023-11-22T18:53:53;166030.56;;;5.62;100.00
64243;BME280;50573;51.512;5.386;2023-11-22T19:03:58;166071.53;;;5.78;100.00
64243;BME280;50573;51.512;5.386;2023-11-22T19:14:01;166059.66;;;5.74;100.00
64243;BME280;50573;51.512;5.386;2023-11-22T19:24:05;166050.41;;;5.70;100.00
64243;BME280;50573;51.512;5.386;2023-11-22T19:34:08;166025.31;;;5.60;100.00
64243;BME280;50573;51.512;5.386;2023-11-22T19:44:13;166080.78;;;5.82;100.00
64243;BME280;50573;51.512;5.386;2023-11-22T19:54:18;166150.81;;;6.08;100.00
64243;BME280;50573;51.512;5.386;2023-11-22T20:04:24;166160.09;;;6.12;100.00
64243;BME280;50573;51.512;5.386;2023-11-22T20:14:26;166178.59;;;6.19;100.00
64243;BME280;50573;51.512;5.386;2023-11-22T20:24:32;166207.66;;;6.30;100.00
64243;BME280;50573;51.512;5.386;2023-11-22T20:34:35;166231.44;;;6.39;100.00
64243;BME280;50573;51.512;5.386;2023-11-22T20:44:39;166265.78;;;6.52;100.00
64243;BME280;50573;51.512;5.386;2023-11-22T20:54:43;166312.09;;;6.69;100.00
64243;BME280;50573;51.512;5.386;2023-11-22T21:04:47;166330.56;;;6.76;100.00
64243;BME280;50573;51.512;5.386;2023-11-22T21:14:50;166353.06;;;6.85;100.00
64243;BME280;50573;51.512;5.386;2023-11-22T21:24:55;166386.09;;;6.97;100.00
64243;BME280;50573;51.512;5.386;2023-11-22T21:34:58;166408.59;;;7.06;100.00
64243;BME280;50573;51.512;5.386;2023-11-22T21:45:02;166400.66;;;7.03;100.00
64243;BME280;50573;51.512;5.386;2023-11-22T21:55:09;166419.13;;;7.10;100.00
64243;BME280;50573;51.512;5.386;2023-11-22T22:05:15;166449.56;;;7.22;100.00
64243;BME280;50573;51.512;5.386;2023-11-22T22:15:18;166444.31;;;7.20;100.00
64243;BME280;50573;51.512;5.386;2023-11-22T22:25:23;166449.56;;;7.22;100.00
64243;BME280;50573;51.512;5.386;2023-11-22T22:35:26;166456.19;;;7.24;100.00
64243;BME280;50573;51.512;5.386;2023-11-22T22:45:31;166487.91;;;7.36;100.00
64243;BME280;50573;51.512;5.386;2023-11-22T22:55:34;166449.56;;;7.22;100.00
64243;BME280;50573;51.512;5.386;2023-11-22T23:05:39;166446.94;;;7.21;100.00
64243;BME280;50573;51.512;5.386;2023-11-22T23:15:42;166431.06;;;7.15;100.00
64243;BME280;50573;51.512;5.386;2023-11-22T23:25:46;166466.75;;;7.28;100.00
64243;BME280;50573;51.512;5.386;2023-11-22T23:35:49;166485.28;;;7.35;100.00
64243;BME280;50573;51.512;5.386;2023-11-22T23:45:55;166507.78;;;7.44;100.00
64243;BME280;50573;51.512;5.386;2023-11-22T23:56:00;166522.28;;;7.49;100.00
